CYYG

Charlottetown Airport

Charlottetown, Prince Edward Island, Canada
METAR CYYG 172100Z 31005KT 15SM FEW030 SCT240 M10/M20 A3033 RMK SC1CI4 SC TR SLP274
Observed Flight Rules
Feb-17 @ 21:00 UTC (36 minutes ago) Visual Flight Rules
Wind Visibility Clouds
310° at 5 knots 15 miles
  • Few at 3,000' AGL
  • Scattered at 24,000' AGL
Temperatures Readings
Current -10°C / 14°F
Dewpoint -20°C / -4°F
Humidity 44%
Altimeter 30.33" Hg
Pressure 1027.4 hPa
Elevation 54
METAR CYYG 172100Z 31005KT 15SM FEW030 SCT240 M10/M20 A3033 RMK SC1CI4 SC TR SLP274
Observed Flight Rules
Feb-17 @ 21:00 UTC
(36 minutes ago)
VFR
Wind Visibility
310° at 5 knots 15 miles
Clouds
  • Few at 3,000' AGL
  • Scattered at 24,000' AGL
Temperature Dewpoint
-10°C / 14°F -20°C / -4°F
Humidity Altimeter Pressure
44% 30.33" Hg 1027.4 hPa